createdAt,value
2019-04-25T00:01:01.215Z,4.00
2019-04-25T00:02:01.732Z,4.00
2019-04-25T00:03:01.203Z,4.00
2019-04-25T00:04:01.905Z,4.00
2019-04-25T00:05:01.354Z,4.00
2019-04-25T00:05:59.960Z,4.00
2019-04-25T00:06:59.998Z,4.00
2019-04-25T00:08:01.442Z,4.00
2019-04-25T00:09:00.021Z,4.00
2019-04-25T00:10:01.498Z,4.00
2019-04-25T00:11:01.622Z,4.00
2019-04-25T00:12:00.078Z,4.00
2019-04-25T00:13:01.667Z,4.00
2019-04-25T00:14:01.572Z,4.00
2019-04-25T00:15:01.443Z,4.00
2019-04-25T00:16:01.729Z,4.00
2019-04-25T00:17:01.638Z,4.00
2019-04-25T00:18:00.188Z,4.00
2019-04-25T00:19:01.748Z,4.00
2019-04-25T00:20:01.606Z,4.00
2019-04-25T00:21:01.368Z,4.00
2019-04-25T00:22:01.871Z,4.00
2019-04-25T00:23:01.902Z,4.00
2019-04-25T00:24:00.304Z,4.00
2019-04-25T00:25:12.942Z,4.00
2019-04-25T00:26:01.348Z,4.00
2019-04-25T00:27:01.802Z,4.00
2019-04-25T00:28:01.824Z,4.00
2019-04-25T00:29:00.394Z,4.00
2019-04-25T00:30:01.647Z,4.00
2019-04-25T00:31:02.027Z,4.00
2019-04-25T00:32:01.682Z,4.00
2019-04-25T00:33:02.025Z,4.00
2019-04-25T00:34:02.088Z,4.00
2019-04-25T00:35:01.917Z,4.00
2019-04-25T00:36:02.025Z,4.00
2019-04-25T00:37:02.333Z,4.00
2019-04-25T00:38:02.261Z,4.00
2019-04-25T00:39:01.993Z,4.00
2019-04-25T00:40:01.514Z,4.00
2019-04-25T00:41:01.713Z,4.00
2019-04-25T00:42:02.148Z,4.00
2019-04-25T00:43:01.581Z,4.00
2019-04-25T00:44:02.307Z,4.00
2019-04-25T00:45:02.355Z,4.00
2019-04-25T00:46:01.528Z,4.00
2019-04-25T00:47:02.271Z,4.00
2019-04-25T00:48:03.992Z,4.00
2019-04-25T00:49:02.434Z,4.00
2019-04-25T00:50:02.350Z,4.00
2019-04-25T00:51:01.874Z,4.00
2019-04-25T00:52:02.039Z,4.00
2019-04-25T00:53:01.186Z,4.00
2019-04-25T00:54:02.409Z,4.00
2019-04-25T00:55:01.872Z,4.00
2019-04-25T00:56:01.413Z,4.00
2019-04-25T00:57:02.157Z,4.00
2019-04-25T00:58:01.353Z,4.00
2019-04-25T00:59:01.966Z,4.00
2019-04-25T01:00:01.874Z,4.00
2019-04-25T01:01:02.056Z,4.00
2019-04-25T01:02:01.477Z,4.00
2019-04-25T01:03:01.860Z,4.00
2019-04-25T01:04:02.330Z,4.00
2019-04-25T01:05:01.857Z,4.00
2019-04-25T01:06:03.368Z,4.00
2019-04-25T01:07:01.492Z,4.00
2019-04-25T01:08:02.160Z,4.00
2019-04-25T01:09:01.560Z,4.00
2019-04-25T01:10:02.464Z,4.00
2019-04-25T01:11:01.680Z,4.00
2019-04-25T01:12:03.880Z,4.00
2019-04-25T01:13:03.061Z,4.00
2019-04-25T01:14:02.166Z,4.00
2019-04-25T01:15:01.724Z,4.00
2019-04-25T01:16:02.165Z,4.00
2019-04-25T01:17:01.791Z,4.00
2019-04-25T01:18:01.320Z,4.00
2019-04-25T01:19:01.312Z,4.00
2019-04-25T01:20:01.361Z,4.00
2019-04-25T01:21:01.350Z,4.00
2019-04-25T01:22:01.367Z,4.00
2019-04-25T01:23:01.384Z,4.00
2019-04-25T01:24:01.403Z,4.00
2019-04-25T01:25:01.426Z,4.00
2019-04-25T01:26:01.438Z,4.00
2019-04-25T01:27:01.460Z,4.00
2019-04-25T01:28:03.154Z,4.00
2019-04-25T01:29:01.499Z,4.00
2019-04-25T01:30:01.514Z,4.00
2019-04-25T01:31:01.536Z,4.00
2019-04-25T01:32:03.192Z,4.00
2019-04-25T01:33:01.566Z,4.00
2019-04-25T01:34:01.589Z,4.00
2019-04-25T01:35:01.606Z,4.00
2019-04-25T01:36:03.269Z,4.00
2019-04-25T01:37:01.639Z,4.00
2019-04-25T01:38:01.663Z,4.00
2019-04-25T01:39:01.680Z,4.00
2019-04-25T01:40:01.699Z,4.00
2019-04-25T01:41:03.388Z,4.00
2019-04-25T01:42:01.738Z,4.00
2019-04-25T01:43:01.756Z,4.00
2019-04-25T01:44:01.780Z,4.00
2019-04-25T01:45:01.788Z,4.00
2019-04-25T01:46:03.370Z,4.00
2019-04-25T01:47:01.821Z,4.00
2019-04-25T01:48:03.426Z,4.00
2019-04-25T01:49:01.857Z,4.00
2019-04-25T01:50:01.882Z,4.00
2019-04-25T01:51:01.897Z,4.00
2019-04-25T01:52:03.442Z,4.00
2019-04-25T01:53:03.434Z,4.00
2019-04-25T01:54:01.953Z,4.00
2019-04-25T01:55:03.476Z,4.00
2019-04-25T01:56:07.114Z,4.00
2019-04-25T01:57:02.019Z,4.00
2019-04-25T01:58:03.761Z,4.00
2019-04-25T01:59:03.769Z,4.00
2019-04-25T02:00:03.828Z,4.00
2019-04-25T02:01:03.153Z,4.00
2019-04-25T02:02:03.809Z,4.00
2019-04-25T02:03:04.345Z,4.00
2019-04-25T02:04:03.555Z,4.00
2019-04-25T02:05:03.984Z,4.00
2019-04-25T02:06:04.112Z,4.00
2019-04-25T02:07:03.625Z,4.00
2019-04-25T02:08:02.209Z,4.00
2019-04-25T02:09:03.845Z,4.00
2019-04-25T02:10:03.718Z,4.00
2019-04-25T02:11:03.187Z,4.00
2019-04-25T02:12:04.579Z,4.00
2019-04-25T02:13:03.813Z,4.00
2019-04-25T02:14:04.841Z,4.00
2019-04-25T02:15:05.946Z,4.00
2019-04-25T02:16:03.403Z,4.00
2019-04-25T02:17:04.435Z,4.00
2019-04-25T02:18:03.771Z,4.00
2019-04-25T02:19:03.968Z,4.00
2019-04-25T02:20:04.107Z,4.00
2019-04-25T02:21:04.401Z,4.00
2019-04-25T02:22:03.967Z,4.00
2019-04-25T02:23:04.095Z,4.00
2019-04-25T02:24:04.331Z,4.00
2019-04-25T02:25:04.433Z,4.00
2019-04-25T02:26:12.646Z,4.00
2019-04-25T02:27:04.552Z,4.00
2019-04-25T02:28:05.514Z,4.00
2019-04-25T02:29:04.536Z,4.00
2019-04-25T02:30:04.357Z,4.00
2019-04-25T02:31:08.143Z,4.00
2019-04-25T02:32:08.445Z,4.00
2019-04-25T02:33:08.429Z,4.00
2019-04-25T02:34:06.188Z,4.00
2019-04-25T02:35:05.545Z,4.00
2019-04-25T02:36:08.312Z,4.00
2019-04-25T02:37:07.126Z,4.00
2019-04-25T02:38:07.097Z,4.00
2019-04-25T02:39:08.164Z,4.00
2019-04-25T02:40:06.675Z,4.00
2019-04-25T02:41:06.879Z,4.00
2019-04-25T02:42:06.941Z,4.00
2019-04-25T02:43:06.588Z,4.00
2019-04-25T02:44:08.021Z,4.00
2019-04-25T02:45:06.596Z,4.00
2019-04-25T02:46:06.500Z,4.00
2019-04-25T02:47:06.512Z,4.00
2019-04-25T02:48:05.716Z,4.00
2019-04-25T02:49:07.177Z,4.00
2019-04-25T02:50:07.085Z,4.00
2019-04-25T02:51:05.422Z,4.00
2019-04-25T02:52:06.937Z,4.00
2019-04-25T02:53:05.748Z,4.00
2019-04-25T02:54:06.150Z,4.00
2019-04-25T02:55:08.095Z,4.00
2019-04-25T02:56:07.910Z,4.00
2019-04-25T02:57:06.551Z,4.00
2019-04-25T02:58:08.115Z,4.00
2019-04-25T02:59:06.495Z,4.00
2019-04-25T03:00:05.952Z,4.00
2019-04-25T03:01:14.312Z,4.00
2019-04-25T03:02:05.687Z,4.00
2019-04-25T03:03:05.621Z,4.00
2019-04-25T03:04:08.573Z,4.00
2019-04-25T03:05:07.383Z,4.00
2019-04-25T03:06:06.023Z,4.00
2019-04-25T03:07:07.427Z,4.00
2019-04-25T03:08:07.971Z,4.00
2019-04-25T03:09:05.668Z,4.00
2019-04-25T03:10:06.128Z,4.00
2019-04-25T03:11:05.783Z,4.00
2019-04-25T03:12:05.852Z,4.00
2019-04-25T03:13:07.963Z,4.00
2019-04-25T03:14:06.626Z,4.00
2019-04-25T03:15:06.692Z,4.00
2019-04-25T03:16:07.677Z,4.00
2019-04-25T03:17:05.263Z,4.00
2019-04-25T03:18:05.688Z,4.00
2019-04-25T03:19:05.114Z,4.00
2019-04-25T03:20:06.633Z,4.00
2019-04-25T03:21:06.127Z,4.00
2019-04-25T03:22:06.840Z,4.00
2019-04-25T03:23:06.894Z,4.00
2019-04-25T03:24:09.072Z,4.00
2019-04-25T03:25:06.362Z,4.00
2019-04-25T03:26:04.730Z,4.00
2019-04-25T03:27:05.212Z,4.00
2019-04-25T03:28:05.002Z,4.00
2019-04-25T03:29:04.955Z,4.00
2019-04-25T03:30:06.423Z,4.00
2019-04-25T03:31:08.581Z,4.00
2019-04-25T03:32:07.459Z,4.00
2019-04-25T03:33:09.271Z,4.00
2019-04-25T03:34:09.481Z,4.00
2019-04-25T03:35:05.532Z,4.00
2019-04-25T03:36:05.515Z,4.00
2019-04-25T03:37:05.280Z,4.00
2019-04-25T03:38:04.556Z,4.00
2019-04-25T03:39:05.083Z,4.00
2019-04-25T03:40:05.689Z,4.00
2019-04-25T03:41:04.812Z,4.00
2019-04-25T03:42:05.140Z,4.00
2019-04-25T03:43:05.078Z,4.00
2019-04-25T03:44:05.302Z,8.00
2019-04-25T03:45:05.013Z,4.00
2019-04-25T03:46:05.010Z,4.00
2019-04-25T03:47:06.451Z,8.00
2019-04-25T03:48:05.600Z,8.00
2019-04-25T03:49:05.038Z,8.00
2019-04-25T03:50:05.870Z,12.00
2019-04-25T03:51:05.467Z,8.00
2019-04-25T03:52:05.257Z,8.00
2019-04-25T03:53:05.340Z,16.00
2019-04-25T03:54:06.014Z,16.00
2019-04-25T03:55:05.080Z,12.00
2019-04-25T03:56:06.001Z,12.00
2019-04-25T03:57:05.252Z,16.00
2019-04-25T03:58:07.535Z,20.00
2019-04-25T03:59:05.846Z,20.00
2019-04-25T04:00:06.196Z,28.00
2019-04-25T04:01:06.971Z,32.00
2019-04-25T04:02:05.884Z,36.00
2019-04-25T04:03:06.443Z,36.00
2019-04-25T04:04:05.706Z,44.00
2019-04-25T04:05:06.000Z,48.00
2019-04-25T04:06:06.284Z,56.00
2019-04-25T04:07:08.342Z,64.00
2019-04-25T04:08:05.606Z,68.00
2019-04-25T04:09:05.557Z,76.00
2019-04-25T04:10:05.363Z,84.00
2019-04-25T04:11:07.096Z,92.00
2019-04-25T04:12:05.551Z,104.00
2019-04-25T04:13:06.279Z,112.00
2019-04-25T04:14:05.812Z,128.00
2019-04-25T04:15:05.663Z,136.00
2019-04-25T04:16:05.251Z,148.00
2019-04-25T04:17:06.304Z,160.00
2019-04-25T04:18:05.959Z,176.00
2019-04-25T04:19:05.744Z,188.00
2019-04-25T04:20:05.616Z,200.00
2019-04-25T04:21:05.410Z,208.00
2019-04-25T04:22:05.436Z,228.00
2019-04-25T04:23:05.627Z,236.00
2019-04-25T04:24:05.304Z,252.00
2019-04-25T04:25:05.886Z,268.00
2019-04-25T04:26:05.506Z,280.00
2019-04-25T04:27:06.739Z,300.00
2019-04-25T04:28:06.124Z,312.00
2019-04-25T04:29:05.760Z,328.00
2019-04-25T04:30:04.728Z,344.00
2019-04-25T04:31:04.738Z,360.00
2019-04-25T04:32:04.765Z,372.00
2019-04-25T04:33:04.780Z,392.00
2019-04-25T04:34:04.793Z,408.00
2019-04-25T04:35:04.813Z,420.00
2019-04-25T04:36:04.824Z,440.00
2019-04-25T04:37:04.846Z,456.00
2019-04-25T04:38:04.861Z,472.00
2019-04-25T04:39:04.888Z,488.00
2019-04-25T04:40:04.902Z,516.00
2019-04-25T04:41:04.914Z,560.00
2019-04-25T04:42:04.935Z,568.00
2019-04-25T04:43:04.954Z,564.00
2019-04-25T04:44:04.972Z,580.00
2019-04-25T04:45:04.987Z,588.00
2019-04-25T04:46:05.005Z,616.00
2019-04-25T04:47:05.034Z,640.00
2019-04-25T04:48:05.034Z,672.00
2019-04-25T04:49:05.056Z,700.00
2019-04-25T04:50:05.074Z,736.00
2019-04-25T04:51:05.089Z,768.00
2019-04-25T04:52:06.553Z,796.00
2019-04-25T04:53:05.132Z,812.00
2019-04-25T04:54:05.148Z,832.00
2019-04-25T04:55:08.389Z,852.00
2019-04-25T04:56:05.178Z,868.00
2019-04-25T04:57:16.657Z,876.00
2019-04-25T04:58:05.215Z,908.00
2019-04-25T04:59:05.239Z,932.00
2019-04-25T05:00:05.247Z,944.00
2019-04-25T05:01:05.268Z,960.00
2019-04-25T05:02:05.284Z,980.00
2019-04-25T05:03:05.299Z,984.00
2019-04-25T05:04:05.323Z,1008.00
2019-04-25T05:05:05.335Z,1016.00
2019-04-25T05:06:05.365Z,1028.00
2019-04-25T05:07:05.377Z,1040.00
2019-04-25T05:08:05.388Z,1036.00
2019-04-25T05:09:05.406Z,1032.00
2019-04-25T05:10:05.423Z,1032.00
2019-04-25T05:11:05.446Z,1048.00
2019-04-25T05:12:05.459Z,1016.00
2019-04-25T05:13:05.478Z,1028.00
2019-04-25T05:14:05.498Z,1040.00
2019-04-25T05:15:05.517Z,1076.00
2019-04-25T05:16:05.534Z,1084.00
2019-04-25T05:17:05.549Z,1096.00
2019-04-25T05:18:05.570Z,1104.00
2019-04-25T05:19:05.586Z,1128.00
2019-04-25T05:20:05.608Z,1172.00
2019-04-25T05:21:05.631Z,1304.00
2019-04-25T05:22:05.637Z,1504.00
2019-04-25T05:23:05.668Z,1532.00
2019-04-25T05:24:05.680Z,1600.00
2019-04-25T05:25:05.696Z,1872.00
2019-04-25T05:26:05.719Z,1956.00
2019-04-25T05:27:05.735Z,1992.00
2019-04-25T05:28:05.750Z,2020.00
2019-04-25T05:29:05.769Z,2088.00
2019-04-25T05:30:05.785Z,2124.00
2019-04-25T05:31:05.802Z,2188.00
2019-04-25T05:32:05.817Z,2228.00
2019-04-25T05:33:05.837Z,2272.00
2019-04-25T05:34:05.862Z,2320.00
2019-04-25T05:35:05.877Z,2108.00
2019-04-25T05:36:06.071Z,1632.00
2019-04-25T05:37:05.914Z,1356.00
2019-04-25T05:38:05.928Z,1392.00
2019-04-25T05:39:05.946Z,1420.00
2019-04-25T05:40:05.969Z,1444.00
2019-04-25T05:41:05.988Z,1452.00
2019-04-25T05:42:07.613Z,1488.00
2019-04-25T05:43:06.027Z,1528.00
2019-04-25T05:44:06.044Z,1508.00
2019-04-25T05:45:06.059Z,1532.00
2019-04-25T05:46:06.078Z,1588.00
2019-04-25T05:47:06.102Z,1612.00
2019-04-25T05:48:06.168Z,1644.00
2019-04-25T05:49:06.137Z,1708.00
2019-04-25T05:50:06.159Z,1764.00
2019-04-25T05:51:06.173Z,1820.00
2019-04-25T05:52:06.195Z,1796.00
2019-04-25T05:53:06.217Z,1880.00
2019-04-25T05:54:06.231Z,1908.00
2019-04-25T05:55:06.252Z,1896.00
2019-04-25T05:56:06.269Z,1908.00
2019-04-25T05:57:06.287Z,1936.00
2019-04-25T05:58:06.305Z,1980.00
2019-04-25T05:59:06.323Z,2020.00
2019-04-25T06:00:06.341Z,2140.00
2019-04-25T06:01:06.357Z,2200.00
2019-04-25T06:02:06.383Z,2292.00
2019-04-25T06:03:06.402Z,2364.00
2019-04-25T06:04:06.413Z,2432.00
2019-04-25T06:05:06.433Z,2540.00
2019-04-25T06:06:06.456Z,2636.00
2019-04-25T06:07:06.474Z,2748.00
2019-04-25T06:08:06.490Z,2912.00
2019-04-25T06:09:06.506Z,3072.00
2019-04-25T06:10:06.543Z,3140.00
2019-04-25T06:11:06.551Z,3116.00
2019-04-25T06:12:06.562Z,3136.00
2019-04-25T06:13:06.589Z,3168.00
2019-04-25T06:14:06.608Z,3128.00
2019-04-25T06:15:06.620Z,3112.00
2019-04-25T06:16:06.639Z,3004.00
2019-04-25T06:17:06.656Z,2880.00
2019-04-25T06:18:06.679Z,2784.00
2019-04-25T06:19:14.016Z,2804.00
2019-04-25T06:20:06.715Z,2728.00
2019-04-25T06:21:06.740Z,2820.00
2019-04-25T06:22:06.755Z,2716.00
2019-04-25T06:23:06.769Z,2392.00
2019-04-25T06:24:06.791Z,2088.00
2019-04-25T06:25:12.302Z,1960.00
2019-04-25T06:26:19.140Z,1928.00
2019-04-25T06:27:06.849Z,2092.00
2019-04-25T06:28:06.867Z,1968.00
2019-04-25T06:29:06.887Z,1864.00
2019-04-25T06:30:06.904Z,1888.00
2019-04-25T06:31:10.331Z,2604.00
2019-04-25T06:32:08.653Z,2848.00
2019-04-25T06:33:06.967Z,2968.00
2019-04-25T06:34:06.981Z,3112.00
2019-04-25T06:35:07.002Z,3252.00
2019-04-25T06:36:07.017Z,3420.00
2019-04-25T06:37:07.035Z,3508.00
2019-04-25T06:38:07.055Z,3660.00
2019-04-25T06:39:07.079Z,3804.00
2019-04-25T06:40:07.098Z,4052.00
2019-04-25T06:41:07.115Z,4148.00
2019-04-25T06:42:07.133Z,4332.00
2019-04-25T06:43:07.154Z,4508.00
2019-04-25T06:44:07.167Z,4588.00
2019-04-25T06:45:07.191Z,4628.00
2019-04-25T06:46:07.209Z,4628.00
2019-04-25T06:47:07.225Z,4600.00
2019-04-25T06:48:07.245Z,4548.00
2019-04-25T06:49:07.267Z,4512.00
2019-04-25T06:50:07.286Z,4480.00
2019-04-25T06:51:07.306Z,4476.00
2019-04-25T06:52:07.324Z,4320.00
2019-04-25T06:53:07.347Z,4228.00
2019-04-25T06:54:07.377Z,4248.00
2019-04-25T06:55:07.384Z,4084.00
2019-04-25T06:56:07.405Z,4128.00
2019-04-25T06:57:07.428Z,4024.00
2019-04-25T06:58:11.976Z,3984.00
2019-04-25T06:59:07.456Z,3916.00
2019-04-25T07:00:07.488Z,3868.00
2019-04-25T07:01:07.502Z,3844.00
2019-04-25T07:02:07.522Z,3892.00
2019-04-25T07:03:07.536Z,3760.00
2019-04-25T07:04:07.562Z,3712.00
2019-04-25T07:05:07.574Z,3788.00
2019-04-25T07:06:07.593Z,3816.00
2019-04-25T07:07:11.980Z,3920.00
2019-04-25T07:08:07.642Z,3996.00
2019-04-25T07:09:07.653Z,4024.00
2019-04-25T07:10:07.679Z,4012.00
2019-04-25T07:11:07.699Z,3996.00
2019-04-25T07:12:08.217Z,3944.00
2019-04-25T07:13:07.732Z,3840.00
2019-04-25T07:14:07.759Z,3756.00
2019-04-25T07:15:07.777Z,3952.00
2019-04-25T07:16:07.791Z,3776.00
2019-04-25T07:17:07.814Z,3928.00
2019-04-25T07:18:07.830Z,3996.00
2019-04-25T07:19:07.851Z,4004.00
2019-04-25T07:20:07.871Z,4132.00
2019-04-25T07:21:07.898Z,4272.00
2019-04-25T07:22:07.916Z,4432.00
2019-04-25T07:23:07.938Z,4440.00
2019-04-25T07:24:07.956Z,4756.00
2019-04-25T07:25:07.978Z,5608.00
2019-04-25T07:26:08.003Z,5404.00
2019-04-25T07:27:08.018Z,4960.00
2019-04-25T07:28:08.031Z,5332.00
2019-04-25T07:29:08.167Z,5292.00
2019-04-25T07:30:08.071Z,5056.00
2019-04-25T07:31:08.097Z,5308.00
2019-04-25T07:32:08.118Z,5332.00
2019-04-25T07:33:08.138Z,5644.00
2019-04-25T07:34:08.155Z,5632.00
2019-04-25T07:35:08.183Z,5776.00
2019-04-25T07:36:08.195Z,5876.00
2019-04-25T07:37:08.217Z,5648.00
2019-04-25T07:38:08.242Z,5620.00
2019-04-25T07:39:10.647Z,5564.00
2019-04-25T07:40:08.278Z,6940.00
2019-04-25T07:41:08.304Z,6480.00
2019-04-25T07:42:08.324Z,5632.00
2019-04-25T07:43:08.337Z,6900.00
2019-04-25T07:44:08.458Z,6620.00
2019-04-25T07:45:08.420Z,6288.00
2019-04-25T07:46:08.399Z,6680.00
2019-04-25T07:47:08.428Z,5780.00
2019-04-25T07:48:08.443Z,6132.00
2019-04-25T07:49:08.467Z,5680.00
2019-04-25T07:50:08.501Z,5920.00
2019-04-25T07:51:08.508Z,5876.00
2019-04-25T07:52:08.534Z,6056.00
2019-04-25T07:53:08.546Z,5852.00
2019-04-25T07:54:08.575Z,5304.00
2019-04-25T07:55:08.594Z,6096.00
2019-04-25T07:56:08.611Z,5860.00
2019-04-25T07:57:08.635Z,6536.00
2019-04-25T07:58:08.658Z,6228.00
2019-04-25T07:59:08.674Z,6520.00
2019-04-25T08:00:08.700Z,6132.00
2019-04-25T08:01:08.718Z,6312.00
2019-04-25T08:02:08.739Z,6692.00
2019-04-25T08:03:08.759Z,7264.00
2019-04-25T08:04:08.784Z,7092.00
2019-04-25T08:05:08.809Z,6748.00
2019-04-25T08:06:08.825Z,6704.00
2019-04-25T08:07:08.847Z,6160.00
2019-04-25T08:08:08.866Z,5248.00
2019-04-25T08:09:08.892Z,4100.00
2019-04-25T08:10:08.911Z,3920.00
2019-04-25T08:11:08.939Z,4040.00
2019-04-25T08:12:08.958Z,4352.00
2019-04-25T08:13:08.983Z,4464.00
2019-04-25T08:14:08.995Z,4632.00
2019-04-25T08:15:09.024Z,4900.00
2019-04-25T08:16:09.045Z,4888.00
2019-04-25T08:17:09.069Z,4752.00
2019-04-25T08:18:09.083Z,4800.00
2019-04-25T08:19:09.107Z,4512.00
2019-04-25T08:20:09.127Z,5184.00
2019-04-25T08:21:09.148Z,5772.00
2019-04-25T08:22:09.168Z,6624.00
2019-04-25T08:23:09.194Z,7004.00
2019-04-25T08:24:09.218Z,6996.00
2019-04-25T08:25:09.240Z,7336.00
2019-04-25T08:26:09.258Z,7716.00
2019-04-25T08:27:09.278Z,8032.00
2019-04-25T08:28:09.296Z,7124.00
2019-04-25T08:29:09.324Z,6968.00
2019-04-25T08:30:09.345Z,6964.00
2019-04-25T08:31:09.367Z,6896.00
2019-04-25T08:32:09.387Z,6884.00
2019-04-25T08:33:09.412Z,6968.00
2019-04-25T08:34:09.430Z,6960.00
2019-04-25T08:35:09.451Z,6784.00
2019-04-25T08:36:09.514Z,6544.00
2019-04-25T08:37:18.001Z,6404.00
2019-04-25T08:38:09.512Z,6304.00
2019-04-25T08:39:09.541Z,6500.00
2019-04-25T08:40:09.556Z,6968.00
2019-04-25T08:41:09.580Z,7936.00
2019-04-25T08:42:09.601Z,10156.00
2019-04-25T08:43:09.622Z,8736.00
2019-04-25T08:44:09.649Z,8736.00
2019-04-25T08:45:09.671Z,11156.00
2019-04-25T08:46:09.693Z,11332.00
2019-04-25T08:47:09.711Z,10896.00
2019-04-25T08:48:09.733Z,10780.00
2019-04-25T08:49:09.756Z,11112.00
2019-04-25T08:50:09.779Z,10840.00
2019-04-25T08:51:09.807Z,10040.00
2019-04-25T08:52:09.823Z,8476.00
2019-04-25T08:53:09.849Z,8992.00
2019-04-25T08:54:09.867Z,9080.00
2019-04-25T08:55:09.891Z,8672.00
2019-04-25T08:56:09.920Z,8100.00
2019-04-25T08:57:09.944Z,7552.00
2019-04-25T08:58:09.964Z,6856.00
2019-04-25T08:59:09.986Z,8424.00
2019-04-25T09:00:10.011Z,8448.00
2019-04-25T09:01:10.030Z,7688.00
2019-04-25T09:02:10.055Z,7616.00
2019-04-25T09:03:10.079Z,8024.00
2019-04-25T09:04:10.103Z,8640.00
2019-04-25T09:05:10.124Z,8548.00
2019-04-25T09:06:10.145Z,8280.00
2019-04-25T09:07:10.161Z,8148.00
2019-04-25T09:08:10.193Z,6332.00
2019-04-25T09:09:10.210Z,7596.00
2019-04-25T09:10:10.233Z,5896.00
2019-04-25T09:11:10.259Z,5992.00
2019-04-25T09:12:10.276Z,7028.00
2019-04-25T09:13:10.307Z,6812.00
2019-04-25T09:14:10.333Z,7860.00
2019-04-25T09:15:10.352Z,6480.00
2019-04-25T09:16:10.368Z,7116.00
2019-04-25T09:17:10.394Z,6832.00
2019-04-25T09:18:10.418Z,6680.00
2019-04-25T09:19:10.438Z,6932.00
2019-04-25T09:20:10.466Z,6880.00
2019-04-25T09:21:10.489Z,7060.00
2019-04-25T09:22:10.503Z,6964.00
2019-04-25T09:23:10.534Z,6584.00
2019-04-25T09:24:10.555Z,6040.00
2019-04-25T09:25:10.573Z,5844.00
2019-04-25T09:26:10.601Z,5640.00
2019-04-25T09:27:10.620Z,5452.00
2019-04-25T09:28:10.649Z,5380.00
2019-04-25T09:29:18.219Z,5524.00
2019-04-25T09:30:10.691Z,5796.00
2019-04-25T09:31:10.715Z,5968.00
2019-04-25T09:32:10.737Z,6284.00
2019-04-25T09:33:10.769Z,6176.00
2019-04-25T09:34:10.777Z,6388.00
2019-04-25T09:35:10.803Z,6612.00
2019-04-25T09:36:10.826Z,6860.00
2019-04-25T09:37:10.847Z,6716.00
2019-04-25T09:38:10.875Z,6312.00
2019-04-25T09:39:10.893Z,6028.00
2019-04-25T09:40:10.914Z,5636.00
2019-04-25T09:41:10.940Z,5408.00
2019-04-25T09:42:10.962Z,5292.00
2019-04-25T09:43:10.988Z,5276.00
2019-04-25T09:44:11.007Z,5684.00
2019-04-25T09:45:11.032Z,6976.00
2019-04-25T09:46:11.054Z,8388.00
2019-04-25T09:47:11.077Z,9220.00
2019-04-25T09:48:11.102Z,9216.00
2019-04-25T09:49:11.117Z,9188.00
2019-04-25T09:50:11.141Z,8608.00
2019-04-25T09:51:11.162Z,7712.00
2019-04-25T09:52:11.190Z,6560.00
2019-04-25T09:53:21.027Z,5932.00
2019-04-25T09:54:11.232Z,6428.00
2019-04-25T09:55:11.254Z,7912.00
2019-04-25T09:56:11.281Z,8288.00
2019-04-25T09:57:11.306Z,8384.00
2019-04-25T09:58:11.322Z,8444.00
2019-04-25T09:59:11.344Z,8432.00
2019-04-25T10:00:11.374Z,8680.00
2019-04-25T10:01:11.389Z,9180.00
2019-04-25T10:02:11.417Z,8840.00
2019-04-25T10:03:11.435Z,8120.00
2019-04-25T10:04:11.462Z,7020.00
2019-04-25T10:05:11.482Z,6512.00
2019-04-25T10:06:11.507Z,6432.00
2019-04-25T10:07:11.525Z,6596.00
2019-04-25T10:08:13.346Z,7080.00
2019-04-25T10:09:11.577Z,7596.00
2019-04-25T10:10:11.599Z,7840.00
2019-04-25T10:11:11.616Z,7944.00
2019-04-25T10:12:12.977Z,8116.00
2019-04-25T10:13:11.667Z,8004.00
2019-04-25T10:14:13.510Z,7932.00
2019-04-25T10:15:11.740Z,8032.00
2019-04-25T10:16:11.737Z,8468.00
2019-04-25T10:17:11.767Z,8796.00
2019-04-25T10:18:14.132Z,8676.00
2019-04-25T10:19:13.266Z,8432.00
2019-04-25T10:20:14.433Z,7840.00
2019-04-25T10:21:11.953Z,7260.00
2019-04-25T10:22:13.557Z,6532.00
2019-04-25T10:23:11.899Z,5716.00
2019-04-25T10:24:13.551Z,5016.00
2019-04-25T10:25:13.318Z,4412.00
2019-04-25T10:26:11.968Z,3832.00
2019-04-25T10:27:11.989Z,3468.00
2019-04-25T10:28:13.249Z,3504.00
2019-04-25T10:29:12.031Z,3708.00
2019-04-25T10:30:19.036Z,3752.00
2019-04-25T10:31:13.637Z,3616.00
2019-04-25T10:32:13.009Z,3336.00
2019-04-25T10:33:12.124Z,3180.00
2019-04-25T10:34:13.954Z,3348.00
2019-04-25T10:35:14.668Z,3776.00
2019-04-25T10:36:12.189Z,4336.00
2019-04-25T10:37:13.718Z,4896.00
2019-04-25T10:38:13.801Z,5504.00
2019-04-25T10:39:12.299Z,5712.00
2019-04-25T10:40:13.399Z,5584.00
2019-04-25T10:41:14.083Z,5552.00
2019-04-25T10:42:13.595Z,5476.00
2019-04-25T10:43:13.860Z,5564.00
2019-04-25T10:44:14.012Z,6144.00
2019-04-25T10:45:22.853Z,6760.00
2019-04-25T10:46:14.097Z,7072.00
2019-04-25T10:47:12.441Z,7452.00
2019-04-25T10:48:13.672Z,7624.00
2019-04-25T10:49:14.162Z,8308.00
2019-04-25T10:50:13.541Z,8968.00
2019-04-25T10:51:13.842Z,9216.00
2019-04-25T10:52:13.946Z,8636.00
2019-04-25T10:53:12.577Z,8520.00
2019-04-25T10:54:14.425Z,8764.00
2019-04-25T10:55:14.227Z,8892.00
2019-04-25T10:56:14.213Z,9040.00
2019-04-25T10:57:12.669Z,9244.00
2019-04-25T10:58:14.198Z,9564.00
2019-04-25T10:59:14.469Z,9492.00
2019-04-25T11:00:13.738Z,9076.00
2019-04-25T11:01:15.011Z,8896.00
2019-04-25T11:02:15.138Z,9868.00
2019-04-25T11:03:14.409Z,8344.00
2019-04-25T11:04:13.856Z,8108.00
2019-04-25T11:05:13.709Z,6652.00
2019-04-25T11:06:14.111Z,5948.00
2019-04-25T11:07:13.632Z,5984.00
2019-04-25T11:08:13.725Z,5536.00
2019-04-25T11:09:13.775Z,4916.00
2019-04-25T11:10:14.045Z,4352.00
2019-04-25T11:11:13.859Z,5552.00
2019-04-25T11:12:13.021Z,4840.00
2019-04-25T11:13:14.361Z,5780.00
2019-04-25T11:14:13.488Z,5428.00
2019-04-25T11:15:14.334Z,5036.00
2019-04-25T11:16:13.789Z,4912.00
2019-04-25T11:17:15.306Z,4252.00
2019-04-25T11:18:15.155Z,4896.00
2019-04-25T11:19:13.568Z,4832.00
2019-04-25T11:20:14.394Z,4756.00
2019-04-25T11:21:13.776Z,4960.00
2019-04-25T11:22:13.484Z,5148.00
2019-04-25T11:23:14.003Z,6320.00
2019-04-25T11:24:14.271Z,7584.00
2019-04-25T11:25:14.912Z,7992.00
2019-04-25T11:26:13.863Z,7636.00
2019-04-25T11:27:13.580Z,6700.00
2019-04-25T11:28:14.425Z,6128.00
2019-04-25T11:29:14.975Z,5848.00
2019-04-25T11:30:13.894Z,5496.00
2019-04-25T11:31:14.276Z,5004.00
2019-04-25T11:32:14.920Z,4876.00
2019-04-25T11:33:14.335Z,4632.00
2019-04-25T11:34:14.582Z,4464.00
2019-04-25T11:35:13.951Z,4676.00
2019-04-25T11:36:13.586Z,4816.00
2019-04-25T11:37:14.677Z,5148.00
2019-04-25T11:38:13.873Z,4688.00
2019-04-25T11:39:13.650Z,4492.00
2019-04-25T11:40:14.451Z,3108.00
2019-04-25T11:41:14.114Z,4196.00
2019-04-25T11:42:14.946Z,3960.00
2019-04-25T11:43:14.137Z,3836.00
2019-04-25T11:44:13.944Z,5048.00
2019-04-25T11:45:14.360Z,7544.00
2019-04-25T11:46:14.113Z,5572.00
2019-04-25T11:47:15.397Z,4960.00
2019-04-25T11:48:13.863Z,5192.00
2019-04-25T11:49:15.273Z,5744.00
2019-04-25T11:50:14.075Z,6144.00
2019-04-25T11:51:13.943Z,6056.00
2019-04-25T11:52:21.427Z,6044.00
2019-04-25T11:53:13.990Z,6424.00
2019-04-25T11:54:14.016Z,5216.00
2019-04-25T11:55:14.349Z,4072.00
2019-04-25T11:56:14.058Z,4188.00
2019-04-25T11:57:14.078Z,4964.00
2019-04-25T11:58:14.335Z,5104.00
2019-04-25T11:59:15.677Z,5824.00
2019-04-25T12:00:21.984Z,6472.00
2019-04-25T12:01:14.472Z,6772.00
2019-04-25T12:02:14.195Z,6792.00
2019-04-25T12:03:14.215Z,6720.00
2019-04-25T12:04:14.908Z,6488.00
2019-04-25T12:05:15.131Z,6744.00
2019-04-25T12:06:14.290Z,6424.00
2019-04-25T12:07:14.393Z,5648.00
2019-04-25T12:08:14.336Z,4980.00
2019-04-25T12:09:14.364Z,5160.00
2019-04-25T12:10:14.382Z,5716.00
2019-04-25T12:11:14.409Z,6664.00
2019-04-25T12:12:14.745Z,7076.00
2019-04-25T12:13:15.407Z,7396.00
2019-04-25T12:14:14.943Z,6756.00
2019-04-25T12:15:14.900Z,5880.00
2019-04-25T12:16:14.553Z,5472.00
2019-04-25T12:17:14.548Z,5136.00
2019-04-25T12:18:14.572Z,5036.00
2019-04-25T12:19:14.599Z,4932.00
2019-04-25T12:20:14.619Z,4928.00
2019-04-25T12:21:14.640Z,4880.00
2019-04-25T12:22:14.661Z,4948.00
2019-04-25T12:23:14.685Z,4960.00
2019-04-25T12:24:14.709Z,4824.00
2019-04-25T12:25:15.095Z,4428.00
2019-04-25T12:26:14.760Z,4300.00
2019-04-25T12:27:14.783Z,4300.00
2019-04-25T12:28:14.804Z,4672.00
2019-04-25T12:29:14.833Z,4876.00
2019-04-25T12:30:14.856Z,5244.00